createdAt,value
2023-06-17T00:00:56.334Z,9.77
2023-06-17T00:03:23.122Z,10.02
2023-06-17T00:05:50.157Z,9.93
2023-06-17T00:08:16.873Z,9.57
2023-06-17T00:10:43.485Z,9.77
2023-06-17T00:13:10.435Z,9.93
2023-06-17T00:15:38.113Z,9.55
2023-06-17T00:18:06.626Z,9.27
2023-06-17T00:20:34.003Z,9.57
2023-06-17T00:23:00.889Z,8.25
2023-06-17T00:25:27.534Z,7.97
2023-06-17T00:27:54.744Z,7.85
2023-06-17T00:30:21.700Z,7.78
2023-06-17T00:32:48.584Z,6.80
2023-06-17T00:35:16.061Z,7.43
2023-06-17T00:37:42.877Z,8.52
2023-06-17T00:40:10.717Z,8.38
2023-06-17T00:42:38.126Z,9.20
2023-06-17T00:45:05.471Z,9.32
2023-06-17T00:47:32.356Z,7.53
2023-06-17T00:49:59.606Z,8.35
2023-06-17T00:52:41.283Z,9.20
2023-06-17T00:55:11.813Z,9.55
2023-06-17T00:57:39.755Z,9.85
2023-06-17T01:00:11.811Z,9.13
2023-06-17T01:02:42.013Z,8.95
2023-06-17T01:05:14.270Z,8.93
2023-06-17T01:07:54.224Z,10.05
2023-06-17T01:10:43.888Z,8.30
2023-06-17T01:13:13.517Z,9.10
2023-06-17T01:15:41.093Z,8.13
2023-06-17T01:18:08.985Z,7.93
2023-06-17T01:20:37.532Z,8.40
2023-06-17T01:23:06.535Z,8.02
2023-06-17T01:25:34.217Z,7.80
2023-06-17T01:28:11.975Z,8.18
2023-06-17T01:30:38.684Z,8.95
2023-06-17T01:33:05.467Z,9.68
2023-06-17T01:35:33.704Z,8.20
2023-06-17T01:38:12.307Z,8.77
2023-06-17T01:40:44.057Z,8.68
2023-06-17T01:43:16.981Z,8.05
2023-06-17T01:45:44.409Z,8.77
2023-06-17T01:48:11.385Z,8.68
2023-06-17T01:50:38.158Z,8.65
2023-06-17T01:53:05.048Z,8.18
2023-06-17T01:55:31.746Z,8.57
2023-06-17T01:57:58.653Z,8.75
2023-06-17T02:00:28.040Z,9.20
2023-06-17T02:02:54.875Z,8.35
2023-06-17T02:05:22.256Z,9.20
2023-06-17T02:07:49.103Z,9.07
2023-06-17T02:10:16.501Z,9.15
2023-06-17T02:12:43.288Z,9.38
2023-06-17T02:15:10.938Z,10.05
2023-06-17T02:17:38.428Z,10.05
2023-06-17T02:20:07.314Z,9.15
2023-06-17T02:22:34.551Z,10.18
2023-06-17T02:25:01.619Z,9.77
2023-06-17T02:27:28.501Z,10.00
2023-06-17T02:29:55.756Z,9.73
2023-06-17T02:32:22.402Z,9.85
2023-06-17T02:34:49.341Z,9.48
2023-06-17T02:37:16.872Z,9.65
2023-06-17T02:39:43.631Z,8.13
2023-06-17T02:42:10.473Z,9.90
2023-06-17T02:44:37.462Z,10.10
2023-06-17T02:47:04.606Z,10.20
2023-06-17T02:49:31.894Z,10.07
2023-06-17T02:51:58.705Z,10.65
2023-06-17T02:54:25.405Z,10.18
2023-06-17T02:56:52.077Z,10.10
2023-06-17T02:59:19.520Z,11.27
2023-06-17T03:01:46.308Z,9.70
2023-06-17T03:04:13.299Z,10.40
2023-06-17T03:06:42.521Z,9.65
2023-06-17T03:09:09.754Z,9.70
2023-06-17T03:11:37.498Z,9.52
2023-06-17T03:14:04.758Z,10.15
2023-06-17T03:16:35.042Z,9.43
2023-06-17T03:19:02.483Z,9.38
2023-06-17T03:21:37.030Z,9.70
2023-06-17T03:24:03.994Z,9.52
2023-06-17T03:26:30.624Z,9.80
2023-06-17T03:28:57.684Z,9.57
2023-06-17T03:31:24.576Z,10.40
2023-06-17T03:33:53.407Z,9.88
2023-06-17T03:36:20.924Z,9.50
2023-06-17T03:38:47.868Z,10.75
2023-06-17T03:41:14.507Z,9.20
2023-06-17T03:43:41.373Z,10.15
2023-06-17T03:46:08.240Z,10.48
2023-06-17T03:48:34.871Z,10.93
2023-06-17T03:51:02.534Z,10.18
2023-06-17T03:53:30.526Z,10.15
2023-06-17T03:55:57.384Z,9.88
2023-06-17T03:58:24.201Z,10.18
2023-06-17T04:00:51.787Z,10.18
2023-06-17T04:03:26.638Z,10.05
2023-06-17T04:05:53.907Z,10.02
2023-06-17T04:08:23.343Z,9.80
2023-06-17T04:10:51.090Z,9.35
2023-06-17T04:13:18.092Z,9.60
2023-06-17T04:15:47.083Z,10.52
2023-06-17T04:18:14.464Z,9.88
2023-06-17T04:20:41.554Z,9.40
2023-06-17T04:23:08.382Z,10.48
2023-06-17T04:25:38.531Z,9.52
2023-06-17T04:28:08.372Z,10.10
2023-06-17T04:30:35.409Z,9.88
2023-06-17T04:33:02.361Z,9.25
2023-06-17T04:35:29.346Z,9.35
2023-06-17T04:37:56.836Z,9.30
2023-06-17T04:40:24.717Z,8.95
2023-06-17T04:42:51.849Z,9.40
2023-06-17T04:45:19.038Z,9.20
2023-06-17T04:47:46.308Z,9.43
2023-06-17T04:50:14.076Z,8.80
2023-06-17T04:52:45.156Z,9.02
2023-06-17T04:55:15.510Z,8.20
2023-06-17T04:57:43.534Z,9.23
2023-06-17T05:00:15.061Z,7.70
2023-06-17T05:02:42.309Z,9.18
2023-06-17T05:05:09.498Z,11.05
2023-06-17T05:07:36.450Z,10.52
2023-06-17T05:10:04.034Z,10.50
2023-06-17T05:12:30.790Z,9.52
2023-06-17T05:14:57.479Z,9.88
2023-06-17T05:17:24.521Z,10.05
2023-06-17T05:19:51.406Z,9.88
2023-06-17T05:22:18.051Z,9.27
2023-06-17T05:24:44.952Z,8.30
2023-06-17T05:27:11.722Z,8.63
2023-06-17T05:29:40.198Z,8.30
2023-06-17T05:32:07.681Z,9.05
2023-06-17T05:34:34.577Z,8.85
2023-06-17T05:37:01.490Z,9.10
2023-06-17T05:39:28.355Z,8.50
2023-06-17T05:41:55.313Z,9.43
2023-06-17T05:44:22.190Z,8.50
2023-06-17T05:46:49.112Z,8.68
2023-06-17T05:49:17.019Z,9.15
2023-06-17T05:51:43.891Z,8.60
2023-06-17T05:54:11.187Z,8.75
2023-06-17T05:56:38.002Z,8.15
2023-06-17T05:59:04.605Z,7.72
2023-06-17T06:01:31.434Z,8.38
2023-06-17T06:03:58.200Z,8.27
2023-06-17T06:06:24.948Z,8.07
2023-06-17T06:08:51.935Z,7.90
2023-06-17T06:11:18.708Z,8.30
2023-06-17T06:13:45.386Z,8.68
2023-06-17T06:16:14.884Z,7.93
2023-06-17T06:18:41.953Z,8.93
2023-06-17T06:21:08.695Z,8.80
2023-06-17T06:23:36.226Z,7.85
2023-06-17T06:34:56.157Z,8.10
2023-06-17T06:37:22.778Z,8.20
2023-06-17T06:39:50.197Z,7.18
2023-06-17T06:42:16.893Z,7.50
2023-06-17T06:44:43.559Z,7.00
2023-06-17T06:47:10.209Z,7.35
2023-06-17T06:49:37.618Z,6.88
2023-06-17T06:52:05.123Z,6.63
2023-06-17T06:54:31.847Z,6.65
2023-06-17T06:56:59.110Z,7.07
2023-06-17T06:59:25.765Z,6.72
2023-06-17T07:01:52.447Z,6.13
2023-06-17T07:04:22.144Z,6.00
2023-06-17T07:06:48.911Z,6.63
2023-06-17T07:09:15.528Z,6.32
2023-06-17T07:11:42.452Z,5.95
2023-06-17T07:14:09.110Z,5.60
2023-06-17T07:16:35.956Z,5.57
2023-06-17T07:19:02.754Z,5.38
2023-06-17T07:21:29.410Z,5.30
2023-06-17T07:23:56.067Z,5.07
2023-06-17T07:26:23.197Z,4.85
2023-06-17T07:28:49.830Z,4.95
2023-06-17T07:31:16.676Z,5.55
2023-06-17T07:33:43.772Z,5.38
2023-06-17T07:36:14.697Z,5.03
2023-06-17T07:38:42.570Z,6.28
2023-06-17T07:41:13.040Z,5.50
2023-06-17T07:43:39.784Z,5.88
2023-06-17T07:46:08.159Z,6.05
2023-06-17T07:48:35.419Z,6.00
2023-06-17T07:51:02.552Z,6.40
2023-06-17T07:53:29.196Z,6.40
2023-06-17T07:55:56.577Z,6.53
2023-06-17T07:58:23.431Z,6.35
2023-06-17T08:00:50.083Z,6.60
2023-06-17T08:03:17.419Z,6.70
2023-06-17T08:05:44.184Z,5.78
2023-06-17T08:08:10.760Z,6.18
2023-06-17T08:10:37.921Z,6.43
2023-06-17T08:13:04.699Z,6.55
2023-06-17T08:15:31.378Z,6.50
2023-06-17T08:17:57.998Z,6.10
2023-06-17T08:20:25.369Z,6.30
2023-06-17T08:22:52.301Z,6.15
2023-06-17T08:25:19.097Z,5.88
2023-06-17T08:27:48.961Z,6.22
2023-06-17T08:30:16.049Z,5.20
2023-06-17T08:32:42.952Z,5.90
2023-06-17T08:35:09.975Z,5.82
2023-06-17T08:37:36.986Z,5.53
2023-06-17T08:40:07.753Z,4.90
2023-06-17T08:42:34.697Z,5.57
2023-06-17T08:45:01.770Z,5.00
2023-06-17T08:47:28.980Z,4.95
2023-06-17T08:49:59.381Z,4.90
2023-06-17T08:52:27.403Z,4.47
2023-06-17T08:54:55.573Z,4.70
2023-06-17T08:57:22.460Z,5.00
2023-06-17T08:59:49.593Z,4.30
2023-06-17T09:02:17.193Z,4.43
2023-06-17T09:04:43.992Z,4.22
2023-06-17T09:07:11.015Z,4.15
2023-06-17T09:09:38.223Z,4.70
2023-06-17T09:12:06.803Z,4.18
2023-06-17T09:14:34.533Z,3.85
2023-06-17T09:17:02.176Z,3.60
2023-06-17T09:19:32.618Z,4.03
2023-06-17T09:22:09.847Z,3.60
2023-06-17T09:24:44.153Z,3.40
2023-06-17T09:27:21.767Z,3.58
2023-06-17T09:29:49.518Z,4.10
2023-06-17T09:32:16.749Z,4.35
2023-06-17T09:34:49.268Z,4.00
2023-06-17T09:37:16.602Z,3.85
2023-06-17T09:39:46.826Z,3.88
2023-06-17T09:42:14.032Z,3.83
2023-06-17T09:44:41.987Z,3.50
2023-06-17T09:47:09.778Z,3.92
2023-06-17T09:49:38.285Z,4.13
2023-06-17T09:52:10.308Z,3.60
2023-06-17T09:54:38.448Z,3.90
2023-06-17T09:57:10.581Z,3.50
2023-06-17T09:59:37.552Z,3.63
2023-06-17T10:02:04.520Z,3.55
2023-06-17T10:04:31.627Z,3.63
2023-06-17T10:07:06.272Z,3.75
2023-06-17T10:09:33.287Z,3.58
2023-06-17T10:57:54.773Z,6.10
2023-06-17T11:00:21.747Z,7.10
2023-06-17T11:02:49.103Z,7.07
2023-06-17T11:05:17.984Z,6.45
2023-06-17T11:07:45.095Z,6.00
2023-06-17T11:10:12.155Z,5.78
2023-06-17T11:12:40.563Z,6.40
2023-06-17T11:15:08.375Z,5.65
2023-06-17T11:17:35.093Z,7.10
2023-06-17T11:20:02.915Z,6.13
2023-06-17T11:22:29.861Z,8.25
2023-06-17T11:24:59.493Z,7.65
2023-06-17T11:27:26.432Z,6.50
2023-06-17T11:29:53.291Z,5.95
2023-06-17T11:32:21.385Z,5.60
2023-06-17T11:34:51.261Z,6.13
2023-06-17T11:37:18.374Z,6.22
2023-06-17T11:39:45.110Z,5.50
2023-06-17T11:42:12.417Z,5.38
2023-06-17T11:44:39.568Z,5.28
2023-06-17T11:47:10.097Z,5.72
2023-06-17T11:49:43.073Z,5.60
2023-06-17T11:52:11.012Z,5.78
2023-06-17T11:54:51.429Z,5.25
2023-06-17T11:57:23.113Z,6.00
2023-06-17T11:59:51.352Z,5.80
2023-06-17T12:02:19.018Z,5.32
2023-06-17T12:04:48.991Z,4.80
2023-06-17T12:07:16.044Z,4.95
2023-06-17T12:09:54.617Z,5.15
2023-06-17T12:12:36.667Z,5.18
2023-06-17T12:15:21.221Z,4.43
2023-06-17T12:17:53.080Z,5.43
2023-06-17T12:20:21.918Z,4.80
2023-06-17T12:22:50.530Z,4.90
2023-06-17T12:25:19.932Z,4.80
2023-06-17T12:27:47.274Z,5.18
2023-06-17T12:30:16.507Z,4.38
2023-06-17T12:32:44.500Z,3.53
2023-06-17T12:35:12.990Z,3.10
2023-06-17T12:37:42.363Z,3.38
2023-06-17T12:40:11.632Z,3.58
2023-06-17T12:42:42.624Z,3.60
2023-06-17T12:45:09.672Z,3.72
2023-06-17T12:47:38.069Z,4.22
2023-06-17T12:50:06.376Z,4.10
2023-06-17T12:52:33.479Z,3.90
2023-06-17T12:55:02.637Z,4.38
2023-06-17T12:57:30.435Z,3.67
2023-06-17T12:59:57.198Z,3.88
2023-06-17T13:02:23.898Z,4.05
2023-06-17T13:04:50.664Z,4.70
2023-06-17T13:07:18.046Z,4.53
2023-06-17T13:09:44.980Z,4.20
2023-06-17T13:12:12.514Z,4.25
2023-06-17T13:14:39.276Z,4.32
2023-06-17T13:17:06.611Z,5.68
2023-06-17T13:19:33.376Z,7.05
2023-06-17T13:22:00.066Z,5.68
2023-06-17T13:24:26.808Z,6.20
2023-06-17T13:26:53.495Z,6.07
2023-06-17T13:29:22.499Z,6.80
2023-06-17T13:31:49.343Z,13.80
2023-06-17T13:34:16.257Z,6.07
2023-06-17T13:36:46.326Z,6.10
2023-06-17T13:39:14.646Z,5.80
2023-06-17T13:41:41.488Z,5.95
2023-06-17T13:44:09.431Z,5.57
2023-06-17T13:46:36.406Z,5.53
2023-06-17T13:49:04.447Z,6.72
2023-06-17T13:51:32.466Z,5.65
2023-06-17T13:54:00.412Z,5.50
2023-06-17T13:56:29.009Z,5.43
2023-06-17T13:58:56.668Z,5.75
2023-06-17T14:01:24.621Z,5.30
2023-06-17T14:03:51.554Z,5.55
2023-06-17T14:06:19.508Z,4.80
2023-06-17T14:08:46.161Z,4.93
2023-06-17T14:11:12.930Z,5.00
2023-06-17T14:13:41.020Z,4.90
2023-06-17T14:16:08.359Z,4.28
2023-06-17T14:18:35.075Z,4.43
2023-06-17T14:21:02.111Z,4.70
2023-06-17T14:23:28.747Z,4.20
2023-06-17T14:25:55.695Z,4.60
2023-06-17T14:28:22.231Z,4.60
2023-06-17T14:30:50.173Z,5.03
2023-06-17T14:33:16.945Z,5.05
2023-06-17T14:35:43.779Z,4.50
2023-06-17T14:38:10.595Z,4.47
2023-06-17T14:40:37.452Z,4.55
2023-06-17T14:43:07.253Z,4.50
2023-06-17T14:45:34.023Z,4.38
2023-06-17T14:48:00.867Z,3.97
2023-06-17T14:50:27.860Z,4.65
2023-06-17T14:52:54.581Z,3.95
2023-06-17T14:55:21.390Z,3.97
2023-06-17T14:57:48.200Z,3.60
2023-06-17T15:00:15.158Z,4.28
2023-06-17T15:02:56.033Z,3.72
2023-06-17T15:05:23.752Z,3.70
2023-06-17T15:07:50.562Z,4.85
2023-06-17T15:10:17.476Z,3.10
2023-06-17T15:12:45.334Z,2.67
2023-06-17T15:15:13.960Z,2.95
2023-06-17T15:17:42.172Z,2.72
2023-06-17T15:20:10.836Z,3.30
2023-06-17T15:22:37.765Z,3.55
2023-06-17T15:25:04.738Z,2.97
2023-06-17T15:27:31.325Z,3.10
2023-06-17T15:29:58.016Z,2.75
2023-06-17T15:32:24.782Z,2.85
2023-06-17T15:34:51.365Z,2.10
2023-06-17T15:37:17.988Z,2.42
2023-06-17T15:39:45.361Z,1.90
2023-06-17T15:42:12.980Z,1.40
2023-06-17T15:44:39.782Z,1.30
2023-06-17T15:47:07.043Z,1.48
2023-06-17T15:49:33.883Z,1.27
2023-06-17T15:52:00.891Z,1.20
2023-06-17T15:54:27.749Z,1.00
2023-06-17T15:56:54.394Z,1.10
2023-06-17T15:59:21.532Z,1.10
2023-06-17T16:01:48.741Z,1.20
2023-06-17T16:04:45.800Z,1.40
2023-06-17T16:07:14.229Z,1.63
2023-06-17T16:09:45.757Z,1.40
2023-06-17T16:12:15.396Z,1.63
2023-06-17T16:14:43.265Z,1.48
2023-06-17T16:17:11.062Z,1.90
2023-06-17T16:19:38.831Z,1.50
2023-06-17T16:22:11.231Z,1.40
2023-06-17T16:24:39.416Z,1.80
2023-06-17T16:27:06.489Z,2.03
2023-06-17T16:29:33.228Z,1.95
2023-06-17T16:31:59.974Z,1.73
2023-06-17T16:34:26.688Z,1.90
2023-06-17T16:36:53.438Z,2.13
2023-06-17T16:39:20.275Z,2.00
2023-06-17T16:41:47.607Z,2.05
2023-06-17T16:44:14.396Z,2.20
2023-06-17T16:46:41.315Z,2.30
2023-06-17T16:49:08.033Z,2.47
2023-06-17T16:51:34.771Z,2.50
2023-06-17T16:54:03.750Z,2.42
2023-06-17T16:56:32.149Z,2.40
2023-06-17T16:58:58.839Z,2.40
2023-06-17T17:01:25.763Z,2.38
2023-06-17T17:03:52.461Z,2.45
2023-06-17T17:06:19.598Z,2.72
2023-06-17T17:08:49.818Z,2.22
2023-06-17T17:11:16.526Z,2.63
2023-06-17T17:13:48.507Z,2.42
2023-06-17T17:16:15.764Z,2.40
2023-06-17T17:18:44.479Z,2.35
2023-06-17T17:21:11.167Z,2.70
2023-06-17T17:23:44.702Z,2.70
2023-06-17T17:26:14.273Z,2.92
2023-06-17T17:28:41.525Z,2.80
2023-06-17T17:31:08.633Z,2.53
2023-06-17T17:33:35.585Z,2.70
2023-06-17T17:36:02.432Z,2.90
2023-06-17T17:38:29.160Z,2.65
2023-06-17T17:40:55.788Z,2.58
2023-06-17T17:43:22.668Z,3.17
2023-06-17T17:45:49.355Z,3.30
2023-06-17T17:48:16.932Z,3.60
2023-06-17T17:50:43.629Z,3.30
2023-06-17T17:53:10.675Z,3.20
2023-06-17T17:55:37.736Z,4.13
2023-06-17T17:58:04.433Z,4.03
2023-06-17T18:00:31.400Z,4.30
2023-06-17T18:02:58.511Z,4.60
2023-06-17T18:05:25.319Z,4.07
2023-06-17T18:07:53.770Z,4.78
2023-06-17T18:10:20.971Z,4.10
2023-06-17T18:12:48.105Z,4.00
2023-06-17T18:15:14.808Z,4.53
2023-06-17T18:17:41.538Z,4.18
2023-06-17T18:20:12.288Z,4.03
2023-06-17T18:22:39.341Z,3.88
2023-06-17T18:25:06.875Z,3.58
2023-06-17T18:27:36.312Z,3.08
2023-06-17T18:30:05.094Z,3.63
2023-06-17T18:32:32.099Z,3.00
2023-06-17T18:34:58.950Z,3.40
2023-06-17T18:37:26.094Z,3.42
2023-06-17T18:39:53.152Z,3.00
2023-06-17T18:42:19.853Z,3.15
2023-06-17T18:44:46.545Z,3.22
2023-06-17T18:47:13.514Z,3.17
2023-06-17T18:49:40.431Z,2.90
2023-06-17T18:52:08.404Z,2.65
2023-06-17T18:54:35.380Z,3.42
2023-06-17T18:57:02.042Z,2.70
2023-06-17T18:59:28.656Z,2.92
2023-06-17T19:01:55.373Z,2.97
2023-06-17T19:04:22.044Z,2.72
2023-06-17T19:06:50.070Z,2.80
2023-06-17T19:09:16.907Z,2.55
2023-06-17T19:11:43.631Z,2.90
2023-06-17T19:14:10.458Z,2.80
2023-06-17T19:16:37.186Z,3.03
2023-06-17T19:19:03.920Z,3.20
2023-06-17T19:21:32.153Z,2.83
2023-06-17T19:23:59.207Z,3.20
2023-06-17T19:26:26.186Z,3.40
2023-06-17T19:28:52.839Z,3.20
2023-06-17T19:31:19.545Z,3.05
2023-06-17T19:33:46.309Z,2.97
2023-06-17T19:36:13.330Z,3.40
2023-06-17T19:38:44.518Z,8.30
2023-06-17T19:41:11.106Z,12.48
2023-06-17T19:43:38.257Z,13.52
2023-06-17T19:46:05.252Z,16.10
2023-06-17T19:48:32.501Z,15.48
2023-06-17T19:51:01.971Z,14.10
2023-06-17T19:53:28.788Z,13.73
2023-06-17T19:55:56.242Z,12.25
2023-06-17T19:58:23.113Z,9.32
2023-06-17T20:00:49.848Z,8.13
2023-06-17T20:03:16.828Z,6.93
2023-06-17T20:05:46.264Z,5.43
2023-06-17T20:08:14.445Z,5.45
2023-06-17T20:10:41.516Z,4.93
2023-06-17T20:13:08.944Z,4.07
2023-06-17T20:15:36.977Z,3.78
2023-06-17T20:18:04.445Z,3.95
2023-06-17T20:20:32.271Z,3.63
2023-06-17T20:22:59.119Z,3.67
2023-06-17T20:25:25.781Z,3.58
2023-06-17T20:27:52.452Z,3.40
2023-06-17T20:30:19.590Z,3.85
2023-06-17T20:32:46.650Z,3.70
2023-06-17T20:35:13.405Z,3.55
2023-06-17T20:37:40.645Z,3.95
2023-06-17T20:40:08.039Z,3.45
2023-06-17T20:42:34.859Z,3.60
2023-06-17T20:45:01.696Z,5.03
2023-06-17T20:47:28.587Z,4.10
2023-06-17T20:49:55.446Z,6.47
2023-06-17T20:52:22.429Z,6.47
2023-06-17T20:54:49.078Z,5.53
2023-06-17T20:57:16.041Z,4.35
2023-06-17T20:59:43.267Z,6.88
2023-06-17T21:02:10.059Z,5.75
2023-06-17T21:04:36.641Z,5.57
2023-06-17T21:07:03.654Z,6.00
2023-06-17T21:09:30.954Z,5.13
2023-06-17T21:11:57.862Z,5.10
2023-06-17T21:14:24.516Z,5.72
2023-06-17T21:16:52.411Z,5.07
2023-06-17T21:19:19.175Z,5.60
2023-06-17T21:21:45.887Z,5.32
2023-06-17T21:24:12.617Z,5.63
2023-06-17T21:26:39.765Z,5.03
2023-06-17T21:29:06.497Z,4.78
2023-06-17T21:31:33.202Z,4.65
2023-06-17T21:33:59.877Z,5.28
2023-06-17T21:36:26.657Z,4.45
2023-06-17T21:38:53.337Z,4.65
2023-06-17T21:41:20.294Z,4.68
2023-06-17T21:43:47.047Z,4.88
2023-06-17T21:46:13.909Z,4.38
2023-06-17T21:48:44.662Z,4.65
2023-06-17T21:51:11.622Z,4.80
2023-06-17T21:53:38.257Z,3.88
2023-06-17T21:56:05.051Z,2.92
2023-06-17T21:58:32.593Z,2.50
2023-06-17T22:00:59.292Z,2.22
2023-06-17T22:03:26.368Z,2.15
2023-06-17T22:05:53.087Z,2.40
2023-06-17T22:08:24.673Z,2.55
2023-06-17T22:10:57.702Z,2.42
2023-06-17T22:13:24.561Z,2.45
2023-06-17T22:15:51.205Z,2.70
2023-06-17T22:18:18.170Z,3.03
2023-06-17T22:20:45.070Z,2.50
2023-06-17T22:23:11.756Z,3.40
2023-06-17T22:25:38.361Z,2.80
2023-06-17T22:28:05.060Z,2.20
2023-06-17T22:30:31.699Z,2.47
2023-06-17T22:32:58.531Z,1.98
2023-06-17T22:35:25.171Z,2.28
2023-06-17T22:37:51.867Z,2.00
2023-06-17T22:40:19.411Z,2.25
2023-06-17T22:42:46.315Z,2.20
2023-06-17T22:45:12.960Z,2.25
2023-06-17T22:47:39.942Z,2.28
2023-06-17T22:50:07.351Z,2.40
2023-06-17T22:52:34.001Z,2.80
2023-06-17T22:55:01.185Z,2.40
2023-06-17T22:57:28.474Z,2.47
2023-06-17T22:59:55.120Z,2.60
2023-06-17T23:02:21.847Z,2.67
2023-06-17T23:04:49.802Z,2.50
2023-06-17T23:07:16.629Z,2.60
2023-06-17T23:09:43.481Z,2.08
2023-06-17T23:12:10.547Z,1.90
2023-06-17T23:14:37.663Z,2.47
2023-06-17T23:17:05.221Z,2.10
2023-06-17T23:19:31.808Z,2.45
2023-06-17T23:22:00.538Z,2.30
2023-06-17T23:24:27.848Z,2.30
2023-06-17T23:26:54.681Z,2.33
2023-06-17T23:29:21.359Z,2.17
2023-06-17T23:31:48.239Z,2.00
2023-06-17T23:34:15.005Z,2.10
2023-06-17T23:36:44.048Z,2.00
2023-06-17T23:39:11.253Z,2.50
2023-06-17T23:41:38.057Z,2.28
2023-06-17T23:44:05.135Z,2.38
2023-06-17T23:46:32.134Z,2.05
2023-06-17T23:48:58.895Z,2.20
2023-06-17T23:51:25.870Z,2.10
2023-06-17T23:53:52.645Z,2.30
2023-06-17T23:56:19.264Z,1.90
2023-06-17T23:58:45.968Z,2.30
